sensor_id;sensor_type;location;lat;lon;timestamp;pressure;altitude;pressure_sealevel;temperature;humidity
12799;BME280;19250;42.646;26.980;2023-08-08T12:46:25;98899.69;;;37.85;24.16
12799;BME280;19250;42.646;26.980;2023-08-08T12:48:52;98894.97;;;38.19;22.58
12799;BME280;19250;42.646;26.980;2023-08-08T12:51:19;98889.38;;;38.39;22.60
12799;BME280;19250;42.646;26.980;2023-08-08T12:53:46;98895.19;;;39.28;21.92
12799;BME280;19250;42.646;26.980;2023-08-08T12:56:13;98892.78;;;38.57;22.32
12799;BME280;19250;42.646;26.980;2023-08-08T12:58:40;98883.53;;;38.77;22.10
12799;BME280;19250;42.646;26.980;2023-08-08T13:01:07;98893.38;;;38.62;21.71
12799;BME280;19250;42.646;26.980;2023-08-08T13:03:35;98898.34;;;38.90;22.26
12799;BME280;19250;42.646;26.980;2023-08-08T13:06:02;98893.38;;;38.62;22.62
12799;BME280;19250;42.646;26.980;2023-08-08T13:08:29;98883.91;;;37.89;22.48
12799;BME280;19250;42.646;26.980;2023-08-08T13:10:57;98884.91;;;35.95;23.98
12799;BME280;19250;42.646;26.980;2023-08-08T13:13:24;98881.59;;;37.71;22.36
12799;BME280;19250;42.646;26.980;2023-08-08T13:15:51;98883.13;;;38.54;21.67
12799;BME280;19250;42.646;26.980;2023-08-08T13:18:18;98876.84;;;36.54;23.28
12799;BME280;19250;42.646;26.980;2023-08-08T13:20:46;98881.56;;;36.36;23.92
12799;BME280;19250;42.646;26.980;2023-08-08T13:23:13;98882.38;;;37.00;23.45
12799;BME280;19250;42.646;26.980;2023-08-08T13:25:40;98882.91;;;37.94;22.61
12799;BME280;19250;42.646;26.980;2023-08-08T13:28:08;98883.88;;;38.31;22.44
12799;BME280;19250;42.646;26.980;2023-08-08T13:30:35;98876.44;;;38.02;22.30
12799;BME280;19250;42.646;26.980;2023-08-08T13:33:03;98870.41;;;37.79;22.81
12799;BME280;19250;42.646;26.980;2023-08-08T13:35:30;98886.91;;;37.64;23.00
12799;BME280;19250;42.646;26.980;2023-08-08T13:37:58;98887.47;;;36.90;23.73
12799;BME280;19250;42.646;26.980;2023-08-08T13:40:25;98884.22;;;36.88;23.88
12799;BME280;19250;42.646;26.980;2023-08-08T13:42:52;98889.69;;;37.34;24.00
12799;BME280;19250;42.646;26.980;2023-08-08T13:45:19;98902.41;;;38.59;22.38
12799;BME280;19250;42.646;26.980;2023-08-08T13:47:47;98896.22;;;38.09;22.73
12799;BME280;19250;42.646;26.980;2023-08-08T13:50:14;98902.41;;;38.92;22.10
12799;BME280;19250;42.646;26.980;2023-08-08T13:52:41;98902.59;;;37.89;23.23
12799;BME280;19250;42.646;26.980;2023-08-08T13:55:10;98902.41;;;37.94;23.09
12799;BME280;19250;42.646;26.980;2023-08-08T13:57:36;98893.63;;;37.63;22.93
12799;BME280;19250;42.646;26.980;2023-08-08T14:00:04;98899.94;;;37.51;23.17
12799;BME280;19250;42.646;26.980;2023-08-08T14:02:32;98904.84;;;38.16;22.63
12799;BME280;19250;42.646;26.980;2023-08-08T14:04:58;98902.72;;;38.91;22.26
12799;BME280;19250;42.646;26.980;2023-08-08T14:07:25;98902.53;;;39.08;21.93
12799;BME280;19250;42.646;26.980;2023-08-08T14:09:53;98905.47;;;38.34;22.60
12799;BME280;19250;42.646;26.980;2023-08-08T14:12:21;98897.53;;;37.91;22.55
12799;BME280;19250;42.646;26.980;2023-08-08T14:14:48;98902.53;;;38.18;23.07
12799;BME280;19250;42.646;26.980;2023-08-08T14:17:15;98898.66;;;37.69;23.95
12799;BME280;19250;42.646;26.980;2023-08-08T14:19:41;98902.41;;;38.47;22.98
12799;BME280;19250;42.646;26.980;2023-08-08T14:22:08;98901.97;;;37.83;22.80
12799;BME280;19250;42.646;26.980;2023-08-08T14:24:35;98901.31;;;36.69;23.83
12799;BME280;19250;42.646;26.980;2023-08-08T14:27:02;98893.72;;;35.72;24.95
12799;BME280;19250;42.646;26.980;2023-08-08T14:29:30;98885.16;;;35.51;25.33
12799;BME280;19250;42.646;26.980;2023-08-08T14:31:57;98901.22;;;36.06;24.45
12799;BME280;19250;42.646;26.980;2023-08-08T14:34:28;98898.44;;;35.97;24.80
12799;BME280;19250;42.646;26.980;2023-08-08T14:36:55;98896.81;;;34.43;26.46
12799;BME280;19250;42.646;26.980;2023-08-08T14:39:22;98897.13;;;36.03;25.32
12799;BME280;19250;42.646;26.980;2023-08-08T14:41:49;98903.78;;;35.50;25.46
12799;BME280;19250;42.646;26.980;2023-08-08T14:44:17;98902.16;;;35.49;24.91
12799;BME280;19250;42.646;26.980;2023-08-08T14:46:46;98903.84;;;36.19;24.11
12799;BME280;19250;42.646;26.980;2023-08-08T14:49:13;98899.25;;;36.87;23.97
12799;BME280;19250;42.646;26.980;2023-08-08T14:51:39;98901.13;;;37.41;23.42
12799;BME280;19250;42.646;26.980;2023-08-08T14:54:06;98906.72;;;36.48;23.81
12799;BME280;19250;42.646;26.980;2023-08-08T14:56:33;98895.78;;;35.40;25.43
12799;BME280;19250;42.646;26.980;2023-08-08T14:59:00;98896.88;;;33.85;26.97
12799;BME280;19250;42.646;26.980;2023-08-08T15:01:27;98893.31;;;32.81;28.67
12799;BME280;19250;42.646;26.980;2023-08-08T15:03:56;98894.19;;;31.98;29.16
12799;BME280;19250;42.646;26.980;2023-08-08T15:06:23;98901.88;;;32.01;29.13
12799;BME280;19250;42.646;26.980;2023-08-08T15:08:50;98889.66;;;31.70;29.71
12799;BME280;19250;42.646;26.980;2023-08-08T15:11:17;98892.81;;;31.21;30.59
12799;BME280;19250;42.646;26.980;2023-08-08T15:13:44;98892.16;;;30.58;30.83
12799;BME280;19250;42.646;26.980;2023-08-08T15:16:11;98887.22;;;30.26;31.38
12799;BME280;19250;42.646;26.980;2023-08-08T15:18:39;98894.06;;;29.56;32.54
12799;BME280;19250;42.646;26.980;2023-08-08T15:21:08;98883.81;;;29.12;33.53
12799;BME280;19250;42.646;26.980;2023-08-08T15:23:35;98896.06;;;29.40;33.17
12799;BME280;19250;42.646;26.980;2023-08-08T15:26:01;98890.38;;;29.22;32.95
12799;BME280;19250;42.646;26.980;2023-08-08T15:28:28;98895.97;;;28.96;33.11
12799;BME280;19250;42.646;26.980;2023-08-08T15:30:55;98896.59;;;28.73;33.47
12799;BME280;19250;42.646;26.980;2023-08-08T15:33:22;98896.06;;;28.66;33.68
12799;BME280;19250;42.646;26.980;2023-08-08T15:35:49;98889.16;;;28.79;33.68
12799;BME280;19250;42.646;26.980;2023-08-08T15:38:18;98891.53;;;29.10;33.36
12799;BME280;19250;42.646;26.980;2023-08-08T15:40:45;98900.94;;;28.94;33.50
12799;BME280;19250;42.646;26.980;2023-08-08T15:43:11;98898.16;;;29.04;33.62
12799;BME280;19250;42.646;26.980;2023-08-08T15:45:38;98899.56;;;28.92;33.75
12799;BME280;19250;42.646;26.980;2023-08-08T15:48:05;98900.25;;;29.23;33.00
12799;BME280;19250;42.646;26.980;2023-08-08T15:50:32;98902.06;;;28.83;33.21
12799;BME280;19250;42.646;26.980;2023-08-08T15:52:59;98903.19;;;28.62;33.05
12799;BME280;19250;42.646;26.980;2023-08-08T15:55:28;98906.78;;;28.47;33.09
12799;BME280;19250;42.646;26.980;2023-08-08T15:57:54;98906.53;;;28.39;33.15
12799;BME280;19250;42.646;26.980;2023-08-08T16:00:21;98913.09;;;28.23;33.25
12799;BME280;19250;42.646;26.980;2023-08-08T16:02:48;98909.56;;;28.12;33.82
12799;BME280;19250;42.646;26.980;2023-08-08T16:05:15;98914.22;;;28.17;33.70
12799;BME280;19250;42.646;26.980;2023-08-08T16:07:42;98917.50;;;28.08;33.88
12799;BME280;19250;42.646;26.980;2023-08-08T16:10:09;98919.91;;;27.80;34.10
12799;BME280;19250;42.646;26.980;2023-08-08T16:12:37;98921.31;;;27.97;34.06
12799;BME280;19250;42.646;26.980;2023-08-08T16:15:05;98927.88;;;28.01;33.74
12799;BME280;19250;42.646;26.980;2023-08-08T16:17:32;98925.69;;;27.78;34.14
12799;BME280;19250;42.646;26.980;2023-08-08T16:19:59;98929.81;;;27.96;34.18
12799;BME280;19250;42.646;26.980;2023-08-08T16:22:26;98932.28;;;27.87;34.37
12799;BME280;19250;42.646;26.980;2023-08-08T16:24:53;98934.72;;;27.74;34.47
12799;BME280;19250;42.646;26.980;2023-08-08T16:27:20;98934.22;;;27.92;34.44
12799;BME280;19250;42.646;26.980;2023-08-08T16:29:48;98933.06;;;27.83;34.77
12799;BME280;19250;42.646;26.980;2023-08-08T16:32:15;98943.81;;;27.94;34.40
12799;BME280;19250;42.646;26.980;2023-08-08T16:34:42;98941.59;;;27.76;34.42
12799;BME280;19250;42.646;26.980;2023-08-08T16:37:11;98943.25;;;27.87;34.57
12799;BME280;19250;42.646;26.980;2023-08-08T16:39:38;98942.66;;;27.80;34.66
12799;BME280;19250;42.646;26.980;2023-08-08T16:42:05;98941.31;;;27.78;34.79
12799;BME280;19250;42.646;26.980;2023-08-08T16:44:32;98943.44;;;27.50;34.79
12799;BME280;19250;42.646;26.980;2023-08-08T16:47:00;98947.53;;;27.48;34.74
12799;BME280;19250;42.646;26.980;2023-08-08T16:49:27;98948.25;;;27.23;35.19
12799;BME280;19250;42.646;26.980;2023-08-08T16:51:53;98950.06;;;27.02;35.41
12799;BME280;19250;42.646;26.980;2023-08-08T16:54:19;98945.50;;;27.18;35.18
12799;BME280;19250;42.646;26.980;2023-08-08T16:56:47;98953.94;;;27.12;35.33
12799;BME280;19250;42.646;26.980;2023-08-08T16:59:14;98952.88;;;27.23;35.61
12799;BME280;19250;42.646;26.980;2023-08-08T17:01:41;98948.50;;;27.22;35.69
12799;BME280;19250;42.646;26.980;2023-08-08T17:04:10;98952.81;;;27.08;35.85
12799;BME280;19250;42.646;26.980;2023-08-08T17:06:40;98952.75;;;26.97;36.05
12799;BME280;19250;42.646;26.980;2023-08-08T17:09:07;98958.53;;;27.01;36.09
12799;BME280;19250;42.646;26.980;2023-08-08T17:11:34;98955.47;;;26.92;36.31
12799;BME280;19250;42.646;26.980;2023-08-08T17:14:02;98961.47;;;26.84;36.31
12799;BME280;19250;42.646;26.980;2023-08-08T17:16:29;98970.75;;;26.83;36.39
12799;BME280;19250;42.646;26.980;2023-08-08T17:18:56;98966.28;;;26.72;36.69
12799;BME280;19250;42.646;26.980;2023-08-08T17:21:24;98974.72;;;26.66;36.79
12799;BME280;19250;42.646;26.980;2023-08-08T17:23:51;98970.66;;;26.73;36.76
12799;BME280;19250;42.646;26.980;2023-08-08T17:26:18;98975.94;;;26.80;36.61
12799;BME280;19250;42.646;26.980;2023-08-08T17:28:45;98972.84;;;26.76;36.80
12799;BME280;19250;42.646;26.980;2023-08-08T17:31:14;98969.28;;;26.71;36.98
12799;BME280;19250;42.646;26.980;2023-08-08T17:33:41;98968.97;;;26.67;37.15
12799;BME280;19250;42.646;26.980;2023-08-08T17:36:08;98979.88;;;26.62;37.14
12799;BME280;19250;42.646;26.980;2023-08-08T17:38:37;98983.13;;;26.54;37.24
12799;BME280;19250;42.646;26.980;2023-08-08T17:41:03;98979.22;;;26.45;37.25
12799;BME280;19250;42.646;26.980;2023-08-08T17:43:30;98984.13;;;26.43;37.51
12799;BME280;19250;42.646;26.980;2023-08-08T17:45:57;98981.75;;;26.20;37.65
12799;BME280;19250;42.646;26.980;2023-08-08T17:48:24;98990.47;;;26.17;37.68
12799;BME280;19250;42.646;26.980;2023-08-08T17:50:53;98994.31;;;26.21;37.63
12799;BME280;19250;42.646;26.980;2023-08-08T17:53:20;98992.75;;;26.03;38.18
12799;BME280;19250;42.646;26.980;2023-08-08T17:55:48;98991.84;;;25.92;38.46
12799;BME280;19250;42.646;26.980;2023-08-08T17:58:15;98987.97;;;25.88;38.46
12799;BME280;19250;42.646;26.980;2023-08-08T18:00:42;98993.28;;;25.73;38.64
12799;BME280;19250;42.646;26.980;2023-08-08T18:03:09;99002.53;;;25.72;38.83
12799;BME280;19250;42.646;26.980;2023-08-08T18:05:36;99001.94;;;25.65;39.00
12799;BME280;19250;42.646;26.980;2023-08-08T18:08:03;99009.44;;;25.53;39.23
12799;BME280;19250;42.646;26.980;2023-08-08T18:10:30;99000.56;;;25.46;39.23
12799;BME280;19250;42.646;26.980;2023-08-08T18:13:02;99006.16;;;25.34;39.53
12799;BME280;19250;42.646;26.980;2023-08-08T18:15:29;99006.09;;;25.29;39.81
12799;BME280;19250;42.646;26.980;2023-08-08T18:17:56;99014.47;;;25.23;39.66
12799;BME280;19250;42.646;26.980;2023-08-08T18:20:23;99017.63;;;25.15;39.70
12799;BME280;19250;42.646;26.980;2023-08-08T18:22:50;99021.34;;;25.25;39.76
12799;BME280;19250;42.646;26.980;2023-08-08T18:25:17;99026.91;;;25.14;40.09
12799;BME280;19250;42.646;26.980;2023-08-08T18:27:45;99027.59;;;25.04;40.16
12799;BME280;19250;42.646;26.980;2023-08-08T18:30:13;99032.34;;;24.92;40.54
12799;BME280;19250;42.646;26.980;2023-08-08T18:32:40;99033.97;;;24.93;40.57
12799;BME280;19250;42.646;26.980;2023-08-08T18:35:07;99031.91;;;25.00;40.39
12799;BME280;19250;42.646;26.980;2023-08-08T18:37:34;99029.56;;;25.09;40.74
12799;BME280;19250;42.646;26.980;2023-08-08T18:40:02;99029.00;;;25.07;40.51
12799;BME280;19250;42.646;26.980;2023-08-08T18:42:30;99036.53;;;25.00;40.63
12799;BME280;19250;42.646;26.980;2023-08-08T18:44:57;99037.84;;;24.80;41.07
12799;BME280;19250;42.646;26.980;2023-08-08T18:47:26;99049.25;;;24.77;41.09
12799;BME280;19250;42.646;26.980;2023-08-08T18:49:53;99056.84;;;24.42;41.72
12799;BME280;19250;42.646;26.980;2023-08-08T18:52:20;99057.53;;;24.49;41.71
12799;BME280;19250;42.646;26.980;2023-08-08T18:54:47;99054.34;;;24.24;42.15
12799;BME280;19250;42.646;26.980;2023-08-08T18:57:14;99055.16;;;23.96;42.51
12799;BME280;19250;42.646;26.980;2023-08-08T18:59:41;99007.34;;;23.89;42.41
12799;BME280;19250;42.646;26.980;2023-08-08T19:02:08;99061.63;;;24.35;42.32
12799;BME280;19250;42.646;26.980;2023-08-08T19:04:36;99060.63;;;24.24;42.56
12799;BME280;19250;42.646;26.980;2023-08-08T19:07:03;99058.16;;;24.23;42.40
12799;BME280;19250;42.646;26.980;2023-08-08T19:09:30;99063.78;;;24.33;42.50
12799;BME280;19250;42.646;26.980;2023-08-08T19:11:57;99065.25;;;24.24;42.93
12799;BME280;19250;42.646;26.980;2023-08-08T19:14:23;99061.44;;;23.97;42.93
12799;BME280;19250;42.646;26.980;2023-08-08T19:16:51;99064.25;;;23.73;43.86
12799;BME280;19250;42.646;26.980;2023-08-08T19:19:18;99067.28;;;23.89;43.92
12799;BME280;19250;42.646;26.980;2023-08-08T19:21:47;99071.00;;;23.71;43.65
12799;BME280;19250;42.646;26.980;2023-08-08T19:24:14;99073.59;;;23.77;44.04
12799;BME280;19250;42.646;26.980;2023-08-08T19:26:42;99065.03;;;23.85;43.79
12799;BME280;19250;42.646;26.980;2023-08-08T19:29:09;99070.94;;;23.94;43.60
12799;BME280;19250;42.646;26.980;2023-08-08T19:31:35;99073.53;;;23.89;43.26
12799;BME280;19250;42.646;26.980;2023-08-08T19:34:02;99068.84;;;23.84;43.70
12799;BME280;19250;42.646;26.980;2023-08-08T19:36:29;99064.06;;;23.63;44.36
12799;BME280;19250;42.646;26.980;2023-08-08T19:38:57;99073.06;;;23.52;44.63
12799;BME280;19250;42.646;26.980;2023-08-08T19:41:24;99083.47;;;23.55;44.27
12799;BME280;19250;42.646;26.980;2023-08-08T19:43:51;99076.03;;;23.51;44.15
12799;BME280;19250;42.646;26.980;2023-08-08T19:46:18;99070.94;;;23.54;44.51
12799;BME280;19250;42.646;26.980;2023-08-08T19:48:45;99074.97;;;23.40;45.00
12799;BME280;19250;42.646;26.980;2023-08-08T19:51:12;99089.28;;;23.24;45.58
12799;BME280;19250;42.646;26.980;2023-08-08T19:53:39;99083.38;;;23.04;46.04
12799;BME280;19250;42.646;26.980;2023-08-08T19:56:07;99080.59;;;21.86;48.62
12799;BME280;19250;42.646;26.980;2023-08-08T19:58:34;99078.56;;;22.41;48.37
12799;BME280;19250;42.646;26.980;2023-08-08T20:01:01;99082.13;;;22.12;48.56
12799;BME280;19250;42.646;26.980;2023-08-08T20:03:28;99085.88;;;22.29;48.18
12799;BME280;19250;42.646;26.980;2023-08-08T20:05:55;99080.28;;;22.24;48.47
12799;BME280;19250;42.646;26.980;2023-08-08T20:08:22;99083.75;;;22.43;48.22
12799;BME280;19250;42.646;26.980;2023-08-08T20:10:49;99026.41;;;22.21;47.57
12799;BME280;19250;42.646;26.980;2023-08-08T20:13:17;99087.31;;;22.43;47.93
12799;BME280;19250;42.646;26.980;2023-08-08T20:15:44;99083.25;;;22.22;48.18
12799;BME280;19250;42.646;26.980;2023-08-08T20:18:11;99090.66;;;21.67;50.21
12799;BME280;19250;42.646;26.980;2023-08-08T20:20:38;99094.47;;;21.96;49.57
12799;BME280;19250;42.646;26.980;2023-08-08T20:23:05;99095.66;;;22.30;48.76
12799;BME280;19250;42.646;26.980;2023-08-08T20:25:32;99094.19;;;22.57;47.87
12799;BME280;19250;42.646;26.980;2023-08-08T20:28:00;99102.09;;;22.47;48.30
12799;BME280;19250;42.646;26.980;2023-08-08T20:30:28;99097.38;;;22.54;48.16
12799;BME280;19250;42.646;26.980;2023-08-08T20:32:55;99105.41;;;22.61;48.02
12799;BME280;19250;42.646;26.980;2023-08-08T20:35:22;99110.28;;;22.59;47.56
12799;BME280;19250;42.646;26.980;2023-08-08T20:37:49;99113.91;;;22.41;47.87
12799;BME280;19250;42.646;26.980;2023-08-08T20:40:16;99101.47;;;22.45;47.95
12799;BME280;19250;42.646;26.980;2023-08-08T20:42:43;99105.41;;;22.49;48.26
12799;BME280;19250;42.646;26.980;2023-08-08T20:45:09;99105.94;;;22.28;48.59
12799;BME280;19250;42.646;26.980;2023-08-08T20:47:38;99109.25;;;21.64;50.56
12799;BME280;19250;42.646;26.980;2023-08-08T20:50:05;99108.53;;;21.87;50.17
12799;BME280;19250;42.646;26.980;2023-08-08T20:52:32;99113.81;;;22.18;49.85
12799;BME280;19250;42.646;26.980;2023-08-08T20:55:01;99117.78;;;21.86;50.33
12799;BME280;19250;42.646;26.980;2023-08-08T20:57:28;99110.69;;;21.48;51.53
12799;BME280;19250;42.646;26.980;2023-08-08T20:59:55;99118.31;;;21.94;50.81
12799;BME280;19250;42.646;26.980;2023-08-08T21:02:21;99121.66;;;22.08;50.23
12799;BME280;19250;42.646;26.980;2023-08-08T21:04:50;99113.44;;;22.14;49.97
12799;BME280;19250;42.646;26.980;2023-08-08T21:07:17;99121.25;;;21.93;50.65
12799;BME280;19250;42.646;26.980;2023-08-08T21:09:44;99112.59;;;22.14;50.21
12799;BME280;19250;42.646;26.980;2023-08-08T21:12:11;99119.47;;;22.16;50.06
12799;BME280;19250;42.646;26.980;2023-08-08T21:14:39;99119.81;;;22.20;49.87
12799;BME280;19250;42.646;26.980;2023-08-08T21:17:06;99119.25;;;22.18;50.05
12799;BME280;19250;42.646;26.980;2023-08-08T21:19:33;99118.31;;;22.24;50.02
12799;BME280;19250;42.646;26.980;2023-08-08T21:22:01;99126.38;;;22.31;50.15
12799;BME280;19250;42.646;26.980;2023-08-08T21:24:28;99121.53;;;22.03;50.55
12799;BME280;19250;42.646;26.980;2023-08-08T21:26:56;99113.47;;;21.96;50.62
12799;BME280;19250;42.646;26.980;2023-08-08T21:29:23;99112.34;;;22.04;50.59
12799;BME280;19250;42.646;26.980;2023-08-08T21:31:50;99117.31;;;22.07;50.90
12799;BME280;19250;42.646;26.980;2023-08-08T21:34:17;99120.16;;;22.12;50.08
12799;BME280;19250;42.646;26.980;2023-08-08T21:36:44;99116.69;;;21.87;50.78
12799;BME280;19250;42.646;26.980;2023-08-08T21:39:12;99115.06;;;21.86;51.21
12799;BME280;19250;42.646;26.980;2023-08-08T21:41:39;99118.34;;;21.88;51.32
12799;BME280;19250;42.646;26.980;2023-08-08T21:44:05;99112.63;;;21.78;51.51
12799;BME280;19250;42.646;26.980;2023-08-08T21:46:32;99109.03;;;21.65;52.17
12799;BME280;19250;42.646;26.980;2023-08-08T21:48:59;99104.22;;;21.49;53.05
12799;BME280;19250;42.646;26.980;2023-08-08T21:51:26;99107.53;;;21.51;52.43
12799;BME280;19250;42.646;26.980;2023-08-08T21:53:53;99093.97;;;21.51;52.34
12799;BME280;19250;42.646;26.980;2023-08-08T21:56:22;99100.88;;;21.65;52.13
12799;BME280;19250;42.646;26.980;2023-08-08T21:58:48;99097.97;;;21.67;51.86
12799;BME280;19250;42.646;26.980;2023-08-08T22:01:15;99091.69;;;21.66;51.89
12799;BME280;19250;42.646;26.980;2023-08-08T22:03:42;99097.06;;;21.55;52.46
12799;BME280;19250;42.646;26.980;2023-08-08T22:06:09;99103.53;;;21.54;52.48
12799;BME280;19250;42.646;26.980;2023-08-08T22:08:36;99097.09;;;21.12;53.91
12799;BME280;19250;42.646;26.980;2023-08-08T22:11:03;99097.44;;;21.22;54.28
12799;BME280;19250;42.646;26.980;2023-08-08T22:13:31;99103.91;;;21.39;53.67
12799;BME280;19250;42.646;26.980;2023-08-08T22:15:58;99098.25;;;21.41;53.64
12799;BME280;19250;42.646;26.980;2023-08-08T22:18:26;99099.59;;;21.50;53.60
12799;BME280;19250;42.646;26.980;2023-08-08T22:20:53;99101.28;;;21.51;53.68
12799;BME280;19250;42.646;26.980;2023-08-08T22:23:19;99104.09;;;21.20;54.15
12799;BME280;19250;42.646;26.980;2023-08-08T22:25:46;99102.41;;;21.25;53.65
12799;BME280;19250;42.646;26.980;2023-08-08T22:28:13;99103.16;;;21.32;53.24
12799;BME280;19250;42.646;26.980;2023-08-08T22:30:42;99102.69;;;21.35;53.29
12799;BME280;19250;42.646;26.980;2023-08-08T22:33:08;99101.13;;;21.28;53.45
12799;BME280;19250;42.646;26.980;2023-08-08T22:35:35;99101.91;;;21.10;53.53
12799;BME280;19250;42.646;26.980;2023-08-08T22:38:02;99100.59;;;20.70;55.74
12799;BME280;19250;42.646;26.980;2023-08-08T22:40:29;99108.25;;;20.48;56.51
12799;BME280;19250;42.646;26.980;2023-08-08T22:42:56;99099.38;;;20.90;55.53
12799;BME280;19250;42.646;26.980;2023-08-08T22:45:23;99097.72;;;21.07;55.12
12799;BME280;19250;42.646;26.980;2023-08-08T22:47:53;99091.88;;;20.86;55.14
12799;BME280;19250;42.646;26.980;2023-08-08T22:50:20;99093.34;;;20.63;55.73
12799;BME280;19250;42.646;26.980;2023-08-08T22:52:47;99093.34;;;20.88;55.39
12799;BME280;19250;42.646;26.980;2023-08-08T22:55:13;99101.56;;;21.00;55.09
12799;BME280;19250;42.646;26.980;2023-08-08T22:57:40;99102.97;;;21.09;54.54
12799;BME280;19250;42.646;26.980;2023-08-08T23:00:07;99106.06;;;20.88;55.33
12799;BME280;19250;42.646;26.980;2023-08-08T23:02:35;99108.69;;;20.76;56.17
12799;BME280;19250;42.646;26.980;2023-08-08T23:05:04;99101.91;;;20.60;56.68
12799;BME280;19250;42.646;26.980;2023-08-08T23:07:31;99108.09;;;19.54;62.23
12799;BME280;19250;42.646;26.980;2023-08-08T23:09:58;99108.69;;;20.07;60.79
12799;BME280;19250;42.646;26.980;2023-08-08T23:12:25;99110.50;;;20.26;60.19
12799;BME280;19250;42.646;26.980;2023-08-08T23:14:51;99110.13;;;20.47;59.45
12799;BME280;19250;42.646;26.980;2023-08-08T23:17:18;99109.16;;;20.42;59.70
12799;BME280;19250;42.646;26.980;2023-08-08T23:19:45;99114.31;;;20.43;59.96
12799;BME280;19250;42.646;26.980;2023-08-08T23:22:13;99109.91;;;20.49;60.10
12799;BME280;19250;42.646;26.980;2023-08-08T23:24:40;99113.59;;;20.30;61.09
12799;BME280;19250;42.646;26.980;2023-08-08T23:27:07;99107.78;;;20.57;60.05
12799;BME280;19250;42.646;26.980;2023-08-08T23:29:35;99116.34;;;20.54;60.26
12799;BME280;19250;42.646;26.980;2023-08-08T23:32:02;99113.34;;;20.62;59.98
12799;BME280;19250;42.646;26.980;2023-08-08T23:34:29;99104.88;;;20.52;60.42
12799;BME280;19250;42.646;26.980;2023-08-08T23:36:55;99108.81;;;20.56;60.36
12799;BME280;19250;42.646;26.980;2023-08-08T23:39:24;99110.84;;;20.36;61.35
12799;BME280;19250;42.646;26.980;2023-08-08T23:41:51;99108.63;;;20.20;62.55
12799;BME280;19250;42.646;26.980;2023-08-08T23:44:18;99102.72;;;19.92;64.27
12799;BME280;19250;42.646;26.980;2023-08-08T23:46:44;99107.88;;;20.00;64.65
12799;BME280;19250;42.646;26.980;2023-08-08T23:49:11;99101.94;;;19.85;65.98
12799;BME280;19250;42.646;26.980;2023-08-08T23:51:38;99101.91;;;19.40;68.85
12799;BME280;19250;42.646;26.980;2023-08-08T23:54:08;99102.50;;;19.42;68.78
12799;BME280;19250;42.646;26.980;2023-08-08T23:56:39;99102.38;;;18.78;75.61
12799;BME280;19250;42.646;26.980;2023-08-08T23:59:06;99100.25;;;19.26;72.33
